Hiawatha, IA (52233)

2:26 PM CDT on September 01, 2014 (GMT -0500)
The Howling Wolves | Change Station
CLOSE
Current Station
Personal Weather Station
Location: Cedar Rapids, IA
Elevation: 860 ft
Nearby Weather Stations

Elev 860 ft 42.05 °N, 91.66 °W | Updated 3 seconds ago

Partly Cloudy
Partly Cloudy
80.8 °F
Feels Like 84 °F
N
3.4
Wind Variable Wind from WSW
Gusts 4.9 mph

Today
High -- | Low -- °F
--% Chance of Precip.
Yesterday
High -- | Low -- °F
Precip. -- in
6:32 AM 7:40 PM
Waxing Crescent, 43% visible
Pressure 29.75 in
Visibility 10.0 miles
Clouds Scattered Clouds 3500 ft
Heat Index 84 °F
Dew Point 68 °F
Humidity 65%
Rainfall 0.89 in
Snow Depth Not available.
UV 7 out of 12
Pollen 3.70 out of 12
Air Quality Not available.
Flu Activity Not available.
METAR KCID 011852Z 25013G18KT 10SM SCT035 26/20 A2977 RMK AO2 SLP075 T02610200

More Conditions Fewer Conditions

Pressure 29.75 in
Visibility 10.0 miles
Clouds Scattered Clouds 3500 ft
Heat Index 84 °F
Dew Point 68 °F
Humidity 65%
Rainfall 0.89 in
Snow Depth Not available.
UV 7 out of 12
Pollen 3.70 out of 12
Air Quality Not available.
Flu Activity Not available.
METAR KCID 011852Z 25013G18KT 10SM SCT035 26/20 A2977 RMK AO2 SLP075 T02610200

More Conditions Fewer Conditions

10-Day Weather Forecast

Almanac

Astronomy

Sep. 01, 2014 Rise Set
Actual Time 6:32 AM CDT 7:40 PM CDT
Civil Twilight 6:03 AM CDT 8:08 PM CDT
Nautical Twilight 5:29 AM CDT 8:43 PM CDT
Astronomical Twilight 4:53 AM CDT 9:19 PM CDT
Moon 1:25 PM CDT 11:34 PM CDT
Length of Visible Light 14h 05m
Length of Day
13h 08m
Tomorrow will be 2m 44s shorter.
Waxing Crescent, 43% of the Moon is Illuminated
Today
Waxing Crescent
Sep 2
First Quarter
Sep 8
Full
Sep 15
Last Quarter
Sep 24
New

Today's Extremes

State Highs State Lows

Community

WunderPhotos

Upload Photos

1,749,378 photos uploaded!

WunderBlogs® & News

Nearby

Snow Depth

Station Depth Elevation
No new snow has been reported.

Earthquake Activity

City Distance Mag. Time & Date
No recent earthquake activity has been reported nearby.
Minimum magnitude displayed is 2.5.

Coastal Water Temperatures

Place Temperature
No Stations Reporting

Nearby Weather Stations